sensor_id;sensor_type;location;lat;lon;timestamp;P1;durP1;ratioP1;P2;durP2;ratioP2
22113;SDS011;11223;49.968;9.062;2022-09-21T00:00:32;4.30;;;3.57;;
22113;SDS011;11223;49.968;9.062;2022-09-21T00:02:58;4.30;;;4.00;;
22113;SDS011;11223;49.968;9.062;2022-09-21T00:05:24;2.80;;;2.07;;
22113;SDS011;11223;49.968;9.062;2022-09-21T00:07:50;4.80;;;2.70;;
22113;SDS011;11223;49.968;9.062;2022-09-21T00:10:16;6.22;;;4.05;;
22113;SDS011;11223;49.968;9.062;2022-09-21T00:12:44;3.65;;;3.28;;
22113;SDS011;11223;49.968;9.062;2022-09-21T00:15:11;3.00;;;2.72;;
22113;SDS011;11223;49.968;9.062;2022-09-21T00:17:37;3.70;;;3.40;;
22113;SDS011;11223;49.968;9.062;2022-09-21T00:20:03;3.08;;;2.85;;
22113;SDS011;11223;49.968;9.062;2022-09-21T00:22:30;2.53;;;2.33;;
22113;SDS011;11223;49.968;9.062;2022-09-21T00:24:56;3.70;;;2.03;;
22113;SDS011;11223;49.968;9.062;2022-09-21T00:27:21;3.30;;;3.00;;
22113;SDS011;11223;49.968;9.062;2022-09-21T00:29:53;2.95;;;2.70;;
22113;SDS011;11223;49.968;9.062;2022-09-21T00:32:27;4.20;;;3.80;;
22113;SDS011;11223;49.968;9.062;2022-09-21T00:34:55;4.82;;;3.53;;
22113;SDS011;11223;49.968;9.062;2022-09-21T00:37:24;2.80;;;2.60;;
22113;SDS011;11223;49.968;9.062;2022-09-21T00:39:51;3.03;;;2.83;;
22113;SDS011;11223;49.968;9.062;2022-09-21T00:42:18;3.65;;;2.15;;
22113;SDS011;11223;49.968;9.062;2022-09-21T00:44:45;4.40;;;3.20;;
22113;SDS011;11223;49.968;9.062;2022-09-21T00:47:15;4.43;;;4.03;;
22113;SDS011;11223;49.968;9.062;2022-09-21T00:49:44;3.35;;;2.20;;
22113;SDS011;11223;49.968;9.062;2022-09-21T00:52:13;3.83;;;3.45;;
22113;SDS011;11223;49.968;9.062;2022-09-21T00:54:44;3.20;;;2.90;;
22113;SDS011;11223;49.968;9.062;2022-09-21T00:57:16;3.40;;;3.10;;
22113;SDS011;11223;49.968;9.062;2022-09-21T00:59:45;3.25;;;2.30;;
22113;SDS011;11223;49.968;9.062;2022-09-21T01:02:11;4.28;;;3.88;;
22113;SDS011;11223;49.968;9.062;2022-09-21T01:04:37;2.80;;;2.13;;
22113;SDS011;11223;49.968;9.062;2022-09-21T01:07:04;3.78;;;3.40;;
22113;SDS011;11223;49.968;9.062;2022-09-21T01:09:38;3.05;;;2.47;;
22113;SDS011;11223;49.968;9.062;2022-09-21T01:15:01;3.00;;;2.78;;
22113;SDS011;11223;49.968;9.062;2022-09-21T01:17:35;3.92;;;3.53;;
22113;SDS011;11223;49.968;9.062;2022-09-21T01:23:12;3.60;;;3.13;;
22113;SDS011;11223;49.968;9.062;2022-09-21T01:31:16;2.47;;;2.10;;
22113;SDS011;11223;49.968;9.062;2022-09-21T01:33:50;3.90;;;3.60;;
22113;SDS011;11223;49.968;9.062;2022-09-21T01:36:23;5.78;;;3.60;;
22113;SDS011;11223;49.968;9.062;2022-09-21T01:38:53;4.30;;;3.10;;
22113;SDS011;11223;49.968;9.062;2022-09-21T01:41:21;4.50;;;3.72;;
22113;SDS011;11223;49.968;9.062;2022-09-21T01:43:52;2.97;;;2.05;;
22113;SDS011;11223;49.968;9.062;2022-09-21T01:46:22;4.95;;;3.05;;
22113;SDS011;11223;49.968;9.062;2022-09-21T01:48:53;3.22;;;2.92;;
22113;SDS011;11223;49.968;9.062;2022-09-21T01:51:23;4.15;;;3.75;;
22113;SDS011;11223;49.968;9.062;2022-09-21T01:56:39;4.32;;;3.28;;
22113;SDS011;11223;49.968;9.062;2022-09-21T01:59:10;2.97;;;2.75;;
22113;SDS011;11223;49.968;9.062;2022-09-21T02:01:57;2.65;;;2.45;;
22113;SDS011;11223;49.968;9.062;2022-09-21T02:04:28;2.47;;;1.85;;
22113;SDS011;11223;49.968;9.062;2022-09-21T02:06:54;3.77;;;3.47;;
22113;SDS011;11223;49.968;9.062;2022-09-21T02:09:20;3.38;;;2.40;;
22113;SDS011;11223;49.968;9.062;2022-09-21T02:11:47;3.17;;;2.88;;
22113;SDS011;11223;49.968;9.062;2022-09-21T02:14:18;4.80;;;4.30;;
22113;SDS011;11223;49.968;9.062;2022-09-21T02:19:35;2.88;;;2.67;;
22113;SDS011;11223;49.968;9.062;2022-09-21T02:22:23;15.20;;;3.08;;
22113;SDS011;11223;49.968;9.062;2022-09-21T02:25:11;3.05;;;2.60;;
22113;SDS011;11223;49.968;9.062;2022-09-21T02:30:13;3.00;;;2.38;;
22113;SDS011;11223;49.968;9.062;2022-09-21T02:32:50;3.63;;;3.33;;
22113;SDS011;11223;49.968;9.062;2022-09-21T02:35:31;3.35;;;2.58;;
22113;SDS011;11223;49.968;9.062;2022-09-21T02:41:25;3.00;;;2.50;;
22113;SDS011;11223;49.968;9.062;2022-09-21T02:44:26;4.55;;;2.15;;
22113;SDS011;11223;49.968;9.062;2022-09-21T02:47:08;3.05;;;2.17;;
22113;SDS011;11223;49.968;9.062;2022-09-21T02:49:40;4.65;;;2.05;;
22113;SDS011;11223;49.968;9.062;2022-09-21T02:52:11;2.65;;;2.15;;
22113;SDS011;11223;49.968;9.062;2022-09-21T02:54:39;2.67;;;2.03;;
22113;SDS011;11223;49.968;9.062;2022-09-21T02:57:07;3.15;;;2.50;;
22113;SDS011;11223;49.968;9.062;2022-09-21T02:59:35;2.78;;;2.05;;
22113;SDS011;11223;49.968;9.062;2022-09-21T03:02:00;2.80;;;2.60;;
22113;SDS011;11223;49.968;9.062;2022-09-21T03:04:26;4.03;;;3.10;;
22113;SDS011;11223;49.968;9.062;2022-09-21T03:06:52;5.47;;;3.35;;
22113;SDS011;11223;49.968;9.062;2022-09-21T03:09:18;6.50;;;5.90;;
22113;SDS011;11223;49.968;9.062;2022-09-21T03:11:45;2.60;;;2.40;;
22113;SDS011;11223;49.968;9.062;2022-09-21T03:14:10;4.93;;;4.43;;
22113;SDS011;11223;49.968;9.062;2022-09-21T03:16:36;4.43;;;3.30;;
22113;SDS011;11223;49.968;9.062;2022-09-21T03:19:03;5.13;;;3.47;;
22113;SDS011;11223;49.968;9.062;2022-09-21T03:21:29;7.00;;;4.95;;
22113;SDS011;11223;49.968;9.062;2022-09-21T03:23:55;4.80;;;4.10;;
22113;SDS011;11223;49.968;9.062;2022-09-21T03:26:20;5.90;;;3.80;;
22113;SDS011;11223;49.968;9.062;2022-09-21T03:28:46;6.43;;;5.87;;
22113;SDS011;11223;49.968;9.062;2022-09-21T03:31:13;5.68;;;3.60;;
22113;SDS011;11223;49.968;9.062;2022-09-21T03:33:39;3.87;;;3.57;;
22113;SDS011;11223;49.968;9.062;2022-09-21T03:36:04;6.70;;;3.63;;
22113;SDS011;11223;49.968;9.062;2022-09-21T03:38:30;3.50;;;3.20;;
22113;SDS011;11223;49.968;9.062;2022-09-21T03:40:55;4.80;;;3.90;;
22113;SDS011;11223;49.968;9.062;2022-09-21T03:43:22;4.55;;;2.92;;
22113;SDS011;11223;49.968;9.062;2022-09-21T03:45:48;5.18;;;4.70;;
22113;SDS011;11223;49.968;9.062;2022-09-21T03:48:14;6.40;;;5.60;;
22113;SDS011;11223;49.968;9.062;2022-09-21T03:50:40;5.35;;;4.85;;
22113;SDS011;11223;49.968;9.062;2022-09-21T03:53:06;4.10;;;3.70;;
22113;SDS011;11223;49.968;9.062;2022-09-21T03:55:34;4.97;;;2.92;;
22113;SDS011;11223;49.968;9.062;2022-09-21T03:57:59;6.13;;;5.53;;
22113;SDS011;11223;49.968;9.062;2022-09-21T04:00:25;3.63;;;3.30;;
22113;SDS011;11223;49.968;9.062;2022-09-21T04:02:51;6.33;;;5.73;;
22113;SDS011;11223;49.968;9.062;2022-09-21T04:05:16;5.00;;;3.70;;
22113;SDS011;11223;49.968;9.062;2022-09-21T04:07:42;5.53;;;5.03;;
22113;SDS011;11223;49.968;9.062;2022-09-21T04:10:16;6.32;;;4.55;;
22113;SDS011;11223;49.968;9.062;2022-09-21T04:12:45;7.65;;;4.68;;
22113;SDS011;11223;49.968;9.062;2022-09-21T04:15:12;5.38;;;3.50;;
22113;SDS011;11223;49.968;9.062;2022-09-21T04:17:39;4.68;;;4.28;;
22113;SDS011;11223;49.968;9.062;2022-09-21T04:20:05;6.67;;;6.10;;
22113;SDS011;11223;49.968;9.062;2022-09-21T04:22:32;4.72;;;4.22;;
22113;SDS011;11223;49.968;9.062;2022-09-21T04:24:58;4.53;;;3.95;;
22113;SDS011;11223;49.968;9.062;2022-09-21T04:27:25;6.57;;;6.03;;
22113;SDS011;11223;49.968;9.062;2022-09-21T04:29:51;6.13;;;5.50;;
22113;SDS011;11223;49.968;9.062;2022-09-21T04:32:16;6.70;;;6.10;;
22113;SDS011;11223;49.968;9.062;2022-09-21T04:34:42;5.13;;;4.63;;
22113;SDS011;11223;49.968;9.062;2022-09-21T04:37:08;5.40;;;5.00;;
22113;SDS011;11223;49.968;9.062;2022-09-21T04:39:37;6.15;;;5.10;;
22113;SDS011;11223;49.968;9.062;2022-09-21T04:42:03;6.20;;;4.28;;
22113;SDS011;11223;49.968;9.062;2022-09-21T04:44:29;5.57;;;4.10;;
22113;SDS011;11223;49.968;9.062;2022-09-21T04:46:55;6.00;;;3.90;;
22113;SDS011;11223;49.968;9.062;2022-09-21T04:49:21;4.72;;;3.92;;
22113;SDS011;11223;49.968;9.062;2022-09-21T04:51:47;3.70;;;3.40;;
22113;SDS011;11223;49.968;9.062;2022-09-21T04:54:13;5.68;;;5.20;;
22113;SDS011;11223;49.968;9.062;2022-09-21T04:56:39;5.70;;;5.20;;
22113;SDS011;11223;49.968;9.062;2022-09-21T04:59:04;4.00;;;3.60;;
22113;SDS011;11223;49.968;9.062;2022-09-21T05:01:30;6.50;;;5.87;;
22113;SDS011;11223;49.968;9.062;2022-09-21T05:03:55;3.80;;;3.37;;
22113;SDS011;11223;49.968;9.062;2022-09-21T05:06:27;6.40;;;3.60;;
22113;SDS011;11223;49.968;9.062;2022-09-21T05:08:53;8.85;;;5.63;;
22113;SDS011;11223;49.968;9.062;2022-09-21T05:11:37;5.55;;;4.95;;
22113;SDS011;11223;49.968;9.062;2022-09-21T05:14:03;5.60;;;5.03;;
22113;SDS011;11223;49.968;9.062;2022-09-21T05:16:29;5.30;;;4.80;;
22113;SDS011;11223;49.968;9.062;2022-09-21T05:18:54;5.77;;;4.33;;
22113;SDS011;11223;49.968;9.062;2022-09-21T05:21:20;5.53;;;5.03;;
22113;SDS011;11223;49.968;9.062;2022-09-21T05:23:46;5.32;;;4.03;;
22113;SDS011;11223;49.968;9.062;2022-09-21T05:26:12;7.47;;;4.70;;
22113;SDS011;11223;49.968;9.062;2022-09-21T05:28:37;7.40;;;6.80;;
22113;SDS011;11223;49.968;9.062;2022-09-21T05:31:06;4.90;;;4.40;;
22113;SDS011;11223;49.968;9.062;2022-09-21T05:33:36;4.95;;;4.45;;
22113;SDS011;11223;49.968;9.062;2022-09-21T05:38:41;5.20;;;4.68;;
22113;SDS011;11223;49.968;9.062;2022-09-21T05:41:07;6.90;;;6.30;;
22113;SDS011;11223;49.968;9.062;2022-09-21T05:43:33;8.10;;;7.30;;
22113;SDS011;11223;49.968;9.062;2022-09-21T05:46:04;8.83;;;5.37;;
22113;SDS011;11223;49.968;9.062;2022-09-21T05:48:40;6.95;;;4.05;;
22113;SDS011;11223;49.968;9.062;2022-09-21T05:51:13;6.07;;;4.80;;
22113;SDS011;11223;49.968;9.062;2022-09-21T05:56:48;7.93;;;4.60;;
22113;SDS011;11223;49.968;9.062;2022-09-21T06:04:49;4.57;;;4.05;;
22113;SDS011;11223;49.968;9.062;2022-09-21T06:07:16;4.15;;;3.75;;
22113;SDS011;11223;49.968;9.062;2022-09-21T06:09:42;6.43;;;3.50;;
22113;SDS011;11223;49.968;9.062;2022-09-21T06:12:07;6.37;;;5.83;;
22113;SDS011;11223;49.968;9.062;2022-09-21T06:14:35;3.63;;;3.33;;
22113;SDS011;11223;49.968;9.062;2022-09-21T06:17:01;5.18;;;3.65;;
22113;SDS011;11223;49.968;9.062;2022-09-21T06:19:26;5.27;;;4.77;;
22113;SDS011;11223;49.968;9.062;2022-09-21T06:21:52;3.90;;;3.53;;
22113;SDS011;11223;49.968;9.062;2022-09-21T06:24:18;4.10;;;3.53;;
22113;SDS011;11223;49.968;9.062;2022-09-21T06:26:43;6.03;;;4.20;;
22113;SDS011;11223;49.968;9.062;2022-09-21T06:29:09;6.70;;;4.30;;
22113;SDS011;11223;49.968;9.062;2022-09-21T06:31:34;5.60;;;3.40;;
22113;SDS011;11223;49.968;9.062;2022-09-21T06:34:00;4.80;;;3.40;;
22113;SDS011;11223;49.968;9.062;2022-09-21T06:36:26;5.13;;;3.47;;
22113;SDS011;11223;49.968;9.062;2022-09-21T06:38:51;5.87;;;4.00;;
22113;SDS011;11223;49.968;9.062;2022-09-21T06:41:17;6.60;;;5.87;;
22113;SDS011;11223;49.968;9.062;2022-09-21T06:43:42;5.33;;;4.40;;
22113;SDS011;11223;49.968;9.062;2022-09-21T06:46:08;4.53;;;4.00;;
22113;SDS011;11223;49.968;9.062;2022-09-21T06:48:34;9.93;;;4.73;;
22113;SDS011;11223;49.968;9.062;2022-09-21T06:51:03;5.77;;;4.50;;
22113;SDS011;11223;49.968;9.062;2022-09-21T06:53:31;6.30;;;5.70;;
22113;SDS011;11223;49.968;9.062;2022-09-21T06:56:04;4.15;;;3.30;;
22113;SDS011;11223;49.968;9.062;2022-09-21T06:58:32;6.40;;;4.57;;
22113;SDS011;11223;49.968;9.062;2022-09-21T07:01:08;7.55;;;4.55;;
22113;SDS011;11223;49.968;9.062;2022-09-21T07:03:36;5.30;;;3.17;;
22113;SDS011;11223;49.968;9.062;2022-09-21T07:06:03;3.70;;;3.30;;
22113;SDS011;11223;49.968;9.062;2022-09-21T07:08:29;5.50;;;3.95;;
22113;SDS011;11223;49.968;9.062;2022-09-21T07:10:58;7.87;;;7.20;;
22113;SDS011;11223;49.968;9.062;2022-09-21T07:13:24;5.78;;;4.90;;
22113;SDS011;11223;49.968;9.062;2022-09-21T07:15:51;8.18;;;7.40;;
22113;SDS011;11223;49.968;9.062;2022-09-21T07:18:17;5.45;;;4.80;;
22113;SDS011;11223;49.968;9.062;2022-09-21T07:20:43;9.13;;;4.50;;
22113;SDS011;11223;49.968;9.062;2022-09-21T07:23:12;8.30;;;7.37;;
22113;SDS011;11223;49.968;9.062;2022-09-21T07:25:42;9.85;;;6.97;;
22113;SDS011;11223;49.968;9.062;2022-09-21T07:28:09;7.43;;;6.80;;
22113;SDS011;11223;49.968;9.062;2022-09-21T07:30:36;8.15;;;7.43;;
22113;SDS011;11223;49.968;9.062;2022-09-21T07:33:03;10.20;;;9.20;;
22113;SDS011;11223;49.968;9.062;2022-09-21T07:35:29;9.57;;;6.25;;
22113;SDS011;11223;49.968;9.062;2022-09-21T07:37:58;9.98;;;8.98;;
22113;SDS011;11223;49.968;9.062;2022-09-21T07:40:25;10.15;;;9.07;;
22113;SDS011;11223;49.968;9.062;2022-09-21T07:42:51;8.27;;;7.20;;
22113;SDS011;11223;49.968;9.062;2022-09-21T07:45:17;9.73;;;8.83;;
22113;SDS011;11223;49.968;9.062;2022-09-21T07:47:42;11.70;;;10.70;;
22113;SDS011;11223;49.968;9.062;2022-09-21T07:50:08;7.93;;;6.60;;
22113;SDS011;11223;49.968;9.062;2022-09-21T07:52:34;11.23;;;10.23;;
22113;SDS011;11223;49.968;9.062;2022-09-21T07:54:59;13.90;;;11.90;;
22113;SDS011;11223;49.968;9.062;2022-09-21T07:57:26;12.57;;;11.27;;
22113;SDS011;11223;49.968;9.062;2022-09-21T08:00:10;12.48;;;10.20;;
22113;SDS011;11223;49.968;9.062;2022-09-21T08:02:36;11.85;;;9.15;;
22113;SDS011;11223;49.968;9.062;2022-09-21T08:05:02;12.60;;;11.30;;
22113;SDS011;11223;49.968;9.062;2022-09-21T08:07:28;15.67;;;14.07;;
22113;SDS011;11223;49.968;9.062;2022-09-21T08:09:53;17.57;;;15.83;;
22113;SDS011;11223;49.968;9.062;2022-09-21T08:12:19;17.50;;;15.80;;
22113;SDS011;11223;49.968;9.062;2022-09-21T08:14:45;16.43;;;14.77;;
22113;SDS011;11223;49.968;9.062;2022-09-21T08:17:11;17.58;;;14.45;;
22113;SDS011;11223;49.968;9.062;2022-09-21T08:19:37;15.75;;;13.90;;
22113;SDS011;11223;49.968;9.062;2022-09-21T08:22:03;15.80;;;13.30;;
22113;SDS011;11223;49.968;9.062;2022-09-21T08:24:29;17.80;;;15.97;;
22113;SDS011;11223;49.968;9.062;2022-09-21T08:26:55;15.50;;;13.90;;
22113;SDS011;11223;49.968;9.062;2022-09-21T08:29:22;20.43;;;18.43;;
22113;SDS011;11223;49.968;9.062;2022-09-21T08:31:48;19.52;;;17.58;;
22113;SDS011;11223;49.968;9.062;2022-09-21T08:34:14;19.67;;;17.77;;
22113;SDS011;11223;49.968;9.062;2022-09-21T08:36:40;19.35;;;17.35;;
22113;SDS011;11223;49.968;9.062;2022-09-21T08:39:06;17.37;;;15.67;;
22113;SDS011;11223;49.968;9.062;2022-09-21T08:44:17;19.13;;;17.20;;
22113;SDS011;11223;49.968;9.062;2022-09-21T08:46:50;19.55;;;17.73;;
22113;SDS011;11223;49.968;9.062;2022-09-21T08:49:45;19.17;;;17.17;;
22113;SDS011;11223;49.968;9.062;2022-09-21T08:52:15;16.50;;;14.75;;
22113;SDS011;11223;49.968;9.062;2022-09-21T08:54:48;13.77;;;12.45;;
22113;SDS011;11223;49.968;9.062;2022-09-21T08:57:21;14.50;;;13.18;;
22113;SDS011;11223;49.968;9.062;2022-09-21T08:59:53;11.60;;;10.43;;
22113;SDS011;11223;49.968;9.062;2022-09-21T09:10:39;8.88;;;7.93;;
22113;SDS011;11223;49.968;9.062;2022-09-21T09:15:50;5.93;;;5.28;;
22113;SDS011;11223;49.968;9.062;2022-09-21T09:21:06;5.00;;;4.60;;
22113;SDS011;11223;49.968;9.062;2022-09-21T09:23:36;5.95;;;4.32;;
22113;SDS011;11223;49.968;9.062;2022-09-21T09:26:20;5.35;;;4.72;;
22113;SDS011;11223;49.968;9.062;2022-09-21T09:28:53;3.50;;;3.20;;
22113;SDS011;11223;49.968;9.062;2022-09-21T09:31:39;4.40;;;4.00;;
22113;SDS011;11223;49.968;9.062;2022-09-21T09:34:10;7.38;;;4.15;;
22113;SDS011;11223;49.968;9.062;2022-09-21T09:36:42;2.05;;;1.95;;
22113;SDS011;11223;49.968;9.062;2022-09-21T09:39:11;3.70;;;3.40;;
22113;SDS011;11223;49.968;9.062;2022-09-21T09:52:13;2.50;;;2.25;;
22113;SDS011;11223;49.968;9.062;2022-09-21T09:54:40;3.28;;;2.58;;
22113;SDS011;11223;49.968;9.062;2022-09-21T09:57:06;3.70;;;2.75;;
22113;SDS011;11223;49.968;9.062;2022-09-21T09:59:49;2.40;;;2.20;;
22113;SDS011;11223;49.968;9.062;2022-09-21T10:04:53;2.05;;;1.70;;
22113;SDS011;11223;49.968;9.062;2022-09-21T10:10:01;2.60;;;1.45;;
22113;SDS011;11223;49.968;9.062;2022-09-21T10:12:30;1.35;;;1.13;;
22113;SDS011;11223;49.968;9.062;2022-09-21T10:14:55;3.10;;;2.07;;
22113;SDS011;11223;49.968;9.062;2022-09-21T10:17:24;3.25;;;2.10;;
22113;SDS011;11223;49.968;9.062;2022-09-21T10:20:00;2.20;;;1.30;;
22113;SDS011;11223;49.968;9.062;2022-09-21T10:22:28;2.33;;;2.13;;
22113;SDS011;11223;49.968;9.062;2022-09-21T10:24:54;2.15;;;1.58;;
22113;SDS011;11223;49.968;9.062;2022-09-21T10:27:26;3.30;;;2.10;;
22113;SDS011;11223;49.968;9.062;2022-09-21T10:29:53;1.75;;;1.60;;
22113;SDS011;11223;49.968;9.062;2022-09-21T10:37:28;2.85;;;1.90;;
22113;SDS011;11223;49.968;9.062;2022-09-21T10:39:55;1.80;;;1.70;;
22113;SDS011;11223;49.968;9.062;2022-09-21T10:42:23;2.83;;;1.70;;
22113;SDS011;11223;49.968;9.062;2022-09-21T10:44:49;2.10;;;1.40;;
22113;SDS011;11223;49.968;9.062;2022-09-21T10:49:47;3.80;;;2.10;;
22113;SDS011;11223;49.968;9.062;2022-09-21T10:52:23;2.03;;;1.83;;
22113;SDS011;11223;49.968;9.062;2022-09-21T10:54:55;2.40;;;1.58;;
22113;SDS011;11223;49.968;9.062;2022-09-21T10:57:22;1.60;;;1.50;;
22113;SDS011;11223;49.968;9.062;2022-09-21T10:59:49;2.15;;;1.70;;
22113;SDS011;11223;49.968;9.062;2022-09-21T11:05:06;1.80;;;1.58;;
22113;SDS011;11223;49.968;9.062;2022-09-21T11:07:44;1.85;;;1.52;;
22113;SDS011;11223;49.968;9.062;2022-09-21T11:10:28;2.67;;;1.20;;
22113;SDS011;11223;49.968;9.062;2022-09-21T11:13:08;1.20;;;1.10;;
22113;SDS011;11223;49.968;9.062;2022-09-21T11:16:00;1.48;;;1.38;;
22113;SDS011;11223;49.968;9.062;2022-09-21T11:19:01;2.47;;;2.20;;
22113;SDS011;11223;49.968;9.062;2022-09-21T11:21:45;3.10;;;1.65;;
22113;SDS011;11223;49.968;9.062;2022-09-21T11:29:53;1.38;;;1.25;;
22113;SDS011;11223;49.968;9.062;2022-09-21T11:35:20;1.60;;;1.00;;
22113;SDS011;11223;49.968;9.062;2022-09-21T11:40:40;1.10;;;1.00;;
22113;SDS011;11223;49.968;9.062;2022-09-21T12:05:14;2.45;;;1.50;;
22113;SDS011;11223;49.968;9.062;2022-09-21T12:08:12;2.35;;;1.08;;
22113;SDS011;11223;49.968;9.062;2022-09-21T12:25:03;0.70;;;0.70;;
22113;SDS011;11223;49.968;9.062;2022-09-21T12:30:28;0.80;;;0.70;;
22113;SDS011;11223;49.968;9.062;2022-09-21T12:32:58;1.02;;;0.93;;
22113;SDS011;11223;49.968;9.062;2022-09-21T12:35:44;1.67;;;1.00;;
22113;SDS011;11223;49.968;9.062;2022-09-21T12:41:08;2.42;;;0.55;;
22113;SDS011;11223;49.968;9.062;2022-09-21T12:43:43;2.20;;;0.55;;
22113;SDS011;11223;49.968;9.062;2022-09-21T12:46:16;0.60;;;0.50;;
22113;SDS011;11223;49.968;9.062;2022-09-21T12:48:47;0.70;;;0.52;;
22113;SDS011;11223;49.968;9.062;2022-09-21T12:54:30;0.60;;;0.50;;
22113;SDS011;11223;49.968;9.062;2022-09-21T12:59:59;0.68;;;0.68;;
22113;SDS011;11223;49.968;9.062;2022-09-21T13:12:57;0.82;;;0.50;;
22113;SDS011;11223;49.968;9.062;2022-09-21T13:15:30;0.90;;;0.80;;
22113;SDS011;11223;49.968;9.062;2022-09-21T13:18:04;1.77;;;0.90;;
22113;SDS011;11223;49.968;9.062;2022-09-21T13:20:40;0.60;;;0.50;;
22113;SDS011;11223;49.968;9.062;2022-09-21T13:23:13;0.60;;;0.50;;
22113;SDS011;11223;49.968;9.062;2022-09-21T13:25:40;0.85;;;0.75;;
22113;SDS011;11223;49.968;9.062;2022-09-21T13:40:58;0.50;;;0.40;;
22113;SDS011;11223;49.968;9.062;2022-09-21T13:49:02;0.90;;;0.68;;
22113;SDS011;11223;49.968;9.062;2022-09-21T13:52:17;1.25;;;0.93;;
22113;SDS011;11223;49.968;9.062;2022-09-21T13:54:32;0.57;;;0.50;;
22113;SDS011;11223;49.968;9.062;2022-09-21T13:57:15;1.80;;;0.70;;
22113;SDS011;11223;49.968;9.062;2022-09-21T13:59:46;1.40;;;0.90;;
22113;SDS011;11223;49.968;9.062;2022-09-21T14:04:56;0.50;;;0.40;;
22113;SDS011;11223;49.968;9.062;2022-09-21T14:07:31;0.80;;;0.70;;
22113;SDS011;11223;49.968;9.062;2022-09-21T14:09:58;0.80;;;0.65;;
22113;SDS011;11223;49.968;9.062;2022-09-21T14:12:30;0.90;;;0.60;;
22113;SDS011;11223;49.968;9.062;2022-09-21T14:20:32;0.85;;;0.75;;
22113;SDS011;11223;49.968;9.062;2022-09-21T14:25:51;0.85;;;0.73;;
22113;SDS011;11223;49.968;9.062;2022-09-21T14:28:25;0.88;;;0.60;;
22113;SDS011;11223;49.968;9.062;2022-09-21T14:30:56;1.30;;;0.55;;
22113;SDS011;11223;49.968;9.062;2022-09-21T14:36:06;1.17;;;0.60;;
22113;SDS011;11223;49.968;9.062;2022-09-21T14:38:55;0.82;;;0.60;;
22113;SDS011;11223;49.968;9.062;2022-09-21T14:41:24;0.95;;;0.68;;
22113;SDS011;11223;49.968;9.062;2022-09-21T14:44:03;0.75;;;0.50;;
22113;SDS011;11223;49.968;9.062;2022-09-21T14:49:16;0.75;;;0.63;;
22113;SDS011;11223;49.968;9.062;2022-09-21T14:54:25;0.88;;;0.68;;
22113;SDS011;11223;49.968;9.062;2022-09-21T15:00:10;0.90;;;0.50;;
22113;SDS011;11223;49.968;9.062;2022-09-21T15:02:44;2.60;;;0.75;;
22113;SDS011;11223;49.968;9.062;2022-09-21T15:11:05;0.88;;;0.75;;
22113;SDS011;11223;49.968;9.062;2022-09-21T15:16:33;0.90;;;0.50;;
22113;SDS011;11223;49.968;9.062;2022-09-21T15:21:55;0.70;;;0.60;;
22113;SDS011;11223;49.968;9.062;2022-09-21T15:24:33;2.17;;;0.80;;
22113;SDS011;11223;49.968;9.062;2022-09-21T15:29:40;0.82;;;0.50;;
22113;SDS011;11223;49.968;9.062;2022-09-21T15:32:23;0.90;;;0.52;;
22113;SDS011;11223;49.968;9.062;2022-09-21T15:37:42;0.70;;;0.60;;
22113;SDS011;11223;49.968;9.062;2022-09-21T15:45:50;1.25;;;1.15;;
22113;SDS011;11223;49.968;9.062;2022-09-21T15:48:25;1.02;;;0.60;;
22113;SDS011;11223;49.968;9.062;2022-09-21T15:53:51;0.90;;;0.80;;
22113;SDS011;11223;49.968;9.062;2022-09-21T15:56:31;1.00;;;0.90;;
22113;SDS011;11223;49.968;9.062;2022-09-21T15:59:04;2.58;;;0.90;;
22113;SDS011;11223;49.968;9.062;2022-09-21T16:01:37;1.45;;;0.88;;
22113;SDS011;11223;49.968;9.062;2022-09-21T16:04:10;0.82;;;0.55;;
22113;SDS011;11223;49.968;9.062;2022-09-21T16:06:40;1.27;;;0.68;;
22113;SDS011;11223;49.968;9.062;2022-09-21T16:11:48;0.95;;;0.73;;
22113;SDS011;11223;49.968;9.062;2022-09-21T16:14:15;0.90;;;0.90;;
22113;SDS011;11223;49.968;9.062;2022-09-21T16:25:23;1.35;;;0.70;;
22113;SDS011;11223;49.968;9.062;2022-09-21T16:28:46;0.80;;;0.80;;
22113;SDS011;11223;49.968;9.062;2022-09-21T16:30:53;1.40;;;0.80;;
22113;SDS011;11223;49.968;9.062;2022-09-21T16:33:36;1.00;;;0.80;;
22113;SDS011;11223;49.968;9.062;2022-09-21T16:38:44;0.75;;;0.60;;
22113;SDS011;11223;49.968;9.062;2022-09-21T16:41:14;0.80;;;0.80;;
22113;SDS011;11223;49.968;9.062;2022-09-21T16:43:40;1.00;;;0.82;;
22113;SDS011;11223;49.968;9.062;2022-09-21T16:46:10;1.60;;;0.93;;
22113;SDS011;11223;49.968;9.062;2022-09-21T16:48:36;1.13;;;0.90;;
22113;SDS011;11223;49.968;9.062;2022-09-21T16:51:02;1.50;;;0.77;;
22113;SDS011;11223;49.968;9.062;2022-09-21T16:53:27;6.60;;;1.00;;
22113;SDS011;11223;49.968;9.062;2022-09-21T16:55:53;1.03;;;0.73;;
22113;SDS011;11223;49.968;9.062;2022-09-21T16:58:19;2.50;;;0.90;;
22113;SDS011;11223;49.968;9.062;2022-09-21T17:00:46;0.75;;;0.70;;
22113;SDS011;11223;49.968;9.062;2022-09-21T17:03:15;0.98;;;0.85;;
22113;SDS011;11223;49.968;9.062;2022-09-21T17:05:41;0.87;;;0.70;;
22113;SDS011;11223;49.968;9.062;2022-09-21T17:08:07;2.63;;;1.57;;
22113;SDS011;11223;49.968;9.062;2022-09-21T17:10:35;0.98;;;0.90;;
22113;SDS011;11223;49.968;9.062;2022-09-21T17:13:03;1.98;;;0.70;;
22113;SDS011;11223;49.968;9.062;2022-09-21T17:15:30;1.15;;;1.00;;
22113;SDS011;11223;49.968;9.062;2022-09-21T17:17:57;2.22;;;1.00;;
22113;SDS011;11223;49.968;9.062;2022-09-21T17:20:32;1.00;;;0.90;;
22113;SDS011;11223;49.968;9.062;2022-09-21T17:23:02;1.90;;;1.20;;
22113;SDS011;11223;49.968;9.062;2022-09-21T17:25:28;1.50;;;0.95;;
22113;SDS011;11223;49.968;9.062;2022-09-21T17:27:56;1.30;;;1.02;;
22113;SDS011;11223;49.968;9.062;2022-09-21T17:30:25;0.90;;;0.90;;
22113;SDS011;11223;49.968;9.062;2022-09-21T17:32:51;3.28;;;1.17;;
22113;SDS011;11223;49.968;9.062;2022-09-21T17:35:31;1.02;;;0.85;;
22113;SDS011;11223;49.968;9.062;2022-09-21T17:37:59;1.40;;;1.10;;
22113;SDS011;11223;49.968;9.062;2022-09-21T17:40:26;1.23;;;1.08;;
22113;SDS011;11223;49.968;9.062;2022-09-21T17:42:55;3.75;;;1.00;;
22113;SDS011;11223;49.968;9.062;2022-09-21T17:45:58;1.52;;;1.13;;
22113;SDS011;11223;49.968;9.062;2022-09-21T17:48:24;1.30;;;0.82;;
22113;SDS011;11223;49.968;9.062;2022-09-21T17:50:50;0.80;;;0.70;;
22113;SDS011;11223;49.968;9.062;2022-09-21T17:53:16;0.90;;;0.80;;
22113;SDS011;11223;49.968;9.062;2022-09-21T17:55:58;1.15;;;0.95;;
22113;SDS011;11223;49.968;9.062;2022-09-21T18:01:06;1.90;;;1.00;;
22113;SDS011;11223;49.968;9.062;2022-09-21T18:03:33;0.60;;;0.55;;
22113;SDS011;11223;49.968;9.062;2022-09-21T18:06:04;1.05;;;0.93;;
22113;SDS011;11223;49.968;9.062;2022-09-21T18:08:31;1.20;;;1.08;;
22113;SDS011;11223;49.968;9.062;2022-09-21T18:11:08;0.93;;;0.80;;
22113;SDS011;11223;49.968;9.062;2022-09-21T18:25:51;1.27;;;1.05;;
22113;SDS011;11223;49.968;9.062;2022-09-21T18:28:18;1.20;;;1.10;;
22113;SDS011;11223;49.968;9.062;2022-09-21T18:33:44;2.28;;;1.60;;
22113;SDS011;11223;49.968;9.062;2022-09-21T18:36:22;1.25;;;1.15;;
22113;SDS011;11223;49.968;9.062;2022-09-21T18:38:59;1.08;;;0.70;;
22113;SDS011;11223;49.968;9.062;2022-09-21T18:41:35;1.33;;;1.02;;
22113;SDS011;11223;49.968;9.062;2022-09-21T18:47:29;0.95;;;0.82;;
22113;SDS011;11223;49.968;9.062;2022-09-21T18:55:25;1.20;;;1.10;;
22113;SDS011;11223;49.968;9.062;2022-09-21T18:57:53;1.50;;;1.40;;
22113;SDS011;11223;49.968;9.062;2022-09-21T19:00:20;1.50;;;1.25;;
22113;SDS011;11223;49.968;9.062;2022-09-21T19:02:46;1.10;;;1.00;;
22113;SDS011;11223;49.968;9.062;2022-09-21T19:05:12;1.57;;;1.10;;
22113;SDS011;11223;49.968;9.062;2022-09-21T19:07:44;1.50;;;1.40;;
22113;SDS011;11223;49.968;9.062;2022-09-21T19:10:27;1.73;;;1.40;;
22113;SDS011;11223;49.968;9.062;2022-09-21T19:13:22;3.30;;;2.10;;
22113;SDS011;11223;49.968;9.062;2022-09-21T19:16:31;2.10;;;1.90;;